Time;durP1;ratioP1;P1;durP2;ratioP2;P2;SDS_P1;SDS_P2;PMS_P1;PMS_P2;Temp;Humidity;BMP_temperature;BMP_pressure;BME280_temperature;BME280_humidity;BME280_pressure;Samples;Min_cycle;Max_cycle;Signal;HPM_P1;HPM_P2
2021/01/10 00:00:14;;;;;;;14.80;9.70;;;4.70;99.90;;;;;;5029572;28;20049;-76
2021/01/10 00:02:41;;;;;;;17.05;10.23;;;4.70;99.90;;;;;;5031177;28;20564;-76
2021/01/10 00:05:28;;;;;;;18.25;11.75;;;4.70;99.90;;;;;;5032170;28;20102;-76
2021/01/10 00:07:55;;;;;;;16.15;10.52;;;4.70;99.90;;;;;;5034882;28;20342;-75
2021/01/10 00:10:21;;;;;;;17.90;11.27;;;4.70;99.90;;;;;;5019372;28;20026;-76
2021/01/10 00:12:47;;;;;;;16.27;9.88;;;4.70;99.90;;;;;;5035214;28;20389;-76
2021/01/10 00:15:15;;;;;;;16.60;10.63;;;4.70;99.90;;;;;;5034190;28;20022;-78
2021/01/10 00:17:43;;;;;;;17.13;10.02;;;4.70;99.90;;;;;;5034087;28;20026;-75
2021/01/10 00:20:10;;;;;;;16.25;10.60;;;4.70;99.90;;;;;;5033432;28;20497;-77
2021/01/10 00:22:36;;;;;;;15.75;10.35;;;4.70;99.90;;;;;;5034140;28;20076;-76
2021/01/10 00:25:08;;;;;;;18.08;11.25;;;4.70;99.90;;;;;;5033508;28;20042;-77
2021/01/10 00:27:34;;;;;;;19.35;10.80;;;4.70;99.90;;;;;;5034349;28;20025;-77
2021/01/10 00:30:00;;;;;;;17.05;10.80;;;4.70;99.90;;;;;;5032942;28;20029;-76
2021/01/10 00:32:26;;;;;;;20.13;10.70;;;4.70;99.90;;;;;;5033984;28;20029;-76
2021/01/10 00:34:51;;;;;;;18.98;10.35;;;4.60;99.90;;;;;;5033521;28;20536;-74
2021/01/10 00:37:21;;;;;;;18.38;10.80;;;4.60;99.90;;;;;;5033798;28;20033;-75
2021/01/10 00:39:51;;;;;;;17.73;11.25;;;4.60;99.90;;;;;;5031391;28;20439;-77
2021/01/10 00:42:17;;;;;;;18.55;11.15;;;4.60;99.90;;;;;;5034830;28;20497;-75
2021/01/10 00:44:44;;;;;;;14.75;9.25;;;4.60;99.90;;;;;;5016671;28;20390;-75
2021/01/10 00:47:11;;;;;;;16.45;10.68;;;4.70;99.90;;;;;;5033519;28;20083;-75
2021/01/10 00:49:37;;;;;;;17.60;10.27;;;4.70;99.90;;;;;;5015622;28;20500;-74
2021/01/10 00:52:04;;;;;;;19.40;11.00;;;4.70;99.90;;;;;;5034083;28;20656;-75
2021/01/10 00:54:30;;;;;;;16.35;10.13;;;4.70;99.90;;;;;;5033947;28;20025;-76
2021/01/10 00:56:57;;;;;;;14.48;10.20;;;4.60;99.90;;;;;;5033507;28;20107;-75
2021/01/10 00:59:23;;;;;;;18.02;10.55;;;4.60;99.90;;;;;;5033038;28;20031;-77
2021/01/10 01:01:49;;;;;;;15.27;10.02;;;4.60;99.90;;;;;;5032993;28;20041;-76
2021/01/10 01:04:15;;;;;;;18.33;10.32;;;4.60;99.90;;;;;;5033402;28;20048;-74
2021/01/10 01:06:41;;;;;;;16.52;11.13;;;4.60;99.90;;;;;;5033326;28;20025;-75
2021/01/10 01:09:06;;;;;;;14.73;10.02;;;4.70;99.90;;;;;;5033419;28;20021;-77
2021/01/10 01:11:37;;;;;;;19.85;10.00;;;4.60;99.90;;;;;;5033774;28;20021;-74
2021/01/10 01:14:05;;;;;;;16.42;10.60;;;4.60;99.90;;;;;;5033659;28;20088;-76
2021/01/10 01:16:30;;;;;;;16.65;10.25;;;4.70;99.90;;;;;;5032601;28;20117;-74
2021/01/10 01:18:57;;;;;;;14.80;9.18;;;4.70;99.90;;;;;;5037785;28;20104;-74
2021/01/10 01:21:23;;;;;;;15.80;9.65;;;4.70;99.90;;;;;;5032646;28;20481;-75
2021/01/10 01:23:49;;;;;;;16.67;10.77;;;4.70;99.90;;;;;;5033660;28;20116;-75
2021/01/10 01:26:24;;;;;;;14.90;9.68;;;4.70;99.90;;;;;;5033605;28;20022;-74
2021/01/10 01:28:50;;;;;;;14.07;9.40;;;4.70;99.90;;;;;;5028754;28;20418;-75
2021/01/10 01:31:27;;;;;;;13.38;9.10;;;4.70;99.90;;;;;;5014751;28;20028;-75
2021/01/10 01:33:54;;;;;;;13.68;9.00;;;4.70;99.90;;;;;;5033178;28;20037;-75
2021/01/10 01:36:24;;;;;;;14.55;9.15;;;4.70;99.90;;;;;;5032687;28;20478;-76
2021/01/10 01:38:53;;;;;;;17.10;9.70;;;4.80;99.90;;;;;;5032955;28;20108;-75
2021/01/10 01:41:19;;;;;;;13.70;8.43;;;4.80;99.90;;;;;;5014859;28;20378;-74
2021/01/10 01:43:45;;;;;;;15.32;9.70;;;4.80;99.90;;;;;;5032921;28;20033;-75
2021/01/10 01:46:16;;;;;;;13.32;8.95;;;4.80;99.90;;;;;;5014757;28;20488;-76
2021/01/10 01:48:42;;;;;;;15.13;9.52;;;4.80;99.90;;;;;;5033927;28;20096;-75
2021/01/10 01:51:08;;;;;;;14.70;10.13;;;4.80;99.90;;;;;;5032930;28;20025;-76
2021/01/10 01:53:34;;;;;;;15.70;9.70;;;4.80;99.90;;;;;;5032776;28;20029;-74
2021/01/10 01:56:00;;;;;;;14.30;9.55;;;4.80;99.90;;;;;;5032739;28;20112;-75
2021/01/10 01:58:27;;;;;;;17.35;9.38;;;4.80;99.90;;;;;;5031539;28;20443;-75
2021/01/10 02:00:54;;;;;;;16.42;9.63;;;4.80;99.90;;;;;;5031803;28;20049;-75
2021/01/10 02:03:41;;;;;;;15.73;9.63;;;4.80;99.90;;;;;;5032710;28;20025;-75
2021/01/10 02:06:18;;;;;;;16.98;10.10;;;4.80;99.90;;;;;;5032797;28;20029;-75
2021/01/10 02:08:44;;;;;;;17.50;10.55;;;4.90;99.90;;;;;;5032940;28;20025;-76
2021/01/10 02:11:12;;;;;;;18.50;10.90;;;4.80;99.90;;;;;;5032794;28;20026;-76
2021/01/10 02:13:39;;;;;;;15.30;10.52;;;4.80;99.90;;;;;;5032104;28;20131;-76
2021/01/10 02:16:06;;;;;;;18.23;10.75;;;4.80;99.90;;;;;;5032345;28;20065;-75
2021/01/10 02:18:36;;;;;;;19.90;11.98;;;4.80;99.90;;;;;;5032331;28;20029;-75
2021/01/10 02:21:06;;;;;;;17.42;10.57;;;4.80;99.90;;;;;;5031620;28;20025;-75
2021/01/10 02:23:33;;;;;;;18.20;10.60;;;4.80;99.90;;;;;;5032428;28;20031;-76
2021/01/10 02:26:02;;;;;;;16.35;10.77;;;4.80;99.90;;;;;;5032213;28;20021;-75
2021/01/10 02:28:31;;;;;;;17.73;11.25;;;4.80;99.90;;;;;;5031977;28;20040;-75
2021/01/10 02:31:02;;;;;;;18.40;10.93;;;4.80;99.90;;;;;;5032130;28;20025;-74
2021/01/10 02:33:52;;;;;;;19.92;10.23;;;4.90;99.90;;;;;;5031838;28;20020;-75
2021/01/10 02:36:27;;;;;;;19.52;10.75;;;4.90;99.90;;;;;;5010867;28;20029;-76
2021/01/10 02:39:04;;;;;;;19.88;11.93;;;4.90;99.90;;;;;;5032298;28;20025;-75
2021/01/10 02:41:49;;;;;;;21.95;11.70;;;4.90;99.90;;;;;;5032118;28;20025;-75
2021/01/10 02:44:29;;;;;;;23.95;11.40;;;4.90;99.90;;;;;;5031903;28;20194;-75
2021/01/10 02:46:55;;;;;;;17.15;11.25;;;4.90;99.90;;;;;;5031635;28;20378;-75
2021/01/10 02:49:22;;;;;;;16.30;11.15;;;4.90;99.90;;;;;;5032700;28;20024;-76
2021/01/10 02:51:49;;;;;;;18.58;11.40;;;4.80;99.90;;;;;;5031903;28;20048;-76
2021/01/10 02:54:17;;;;;;;19.27;12.07;;;4.90;99.90;;;;;;5032179;28;20112;-75
2021/01/10 02:56:54;;;;;;;16.48;11.05;;;4.90;99.90;;;;;;5031154;28;20378;-75
2021/01/10 02:59:24;;;;;;;19.73;12.10;;;4.90;99.90;;;;;;5032001;28;20029;-74
2021/01/10 03:01:54;;;;;;;17.50;11.52;;;4.90;99.90;;;;;;5040322;28;20037;-73
2021/01/10 03:04:21;;;;;;;19.25;10.32;;;4.80;99.90;;;;;;5042570;28;20037;-76
2021/01/10 03:06:47;;;;;;;16.85;10.38;;;4.80;99.90;;;;;;5038646;28;20044;-76
2021/01/10 03:09:14;;;;;;;21.10;11.77;;;4.80;99.90;;;;;;5045659;28;20505;-75
2021/01/10 03:11:40;;;;;;;20.17;12.13;;;4.80;99.90;;;;;;5037121;28;20028;-75
2021/01/10 03:14:06;;;;;;;20.95;12.15;;;4.80;99.90;;;;;;5014096;28;20108;-74
2021/01/10 03:16:33;;;;;;;19.40;12.20;;;4.80;99.90;;;;;;5036902;28;20092;-76
2021/01/10 03:18:59;;;;;;;20.50;11.43;;;4.80;99.90;;;;;;5038306;28;20036;-74
2021/01/10 03:21:25;;;;;;;23.67;11.77;;;4.80;99.90;;;;;;5032689;28;20548;-75
2021/01/10 03:23:50;;;;;;;18.00;11.70;;;4.90;99.90;;;;;;5027115;28;20045;-75
2021/01/10 03:26:16;;;;;;;20.40;11.70;;;4.90;99.90;;;;;;5035130;28;20026;-76
2021/01/10 03:28:42;;;;;;;16.50;11.30;;;4.90;99.90;;;;;;5035068;28;20028;-77
2021/01/10 03:31:09;;;;;;;17.92;11.85;;;4.90;99.90;;;;;;5042842;28;20435;-75
2021/01/10 03:33:35;;;;;;;18.88;11.77;;;4.80;99.90;;;;;;5032370;28;20029;-74
2021/01/10 03:36:01;;;;;;;19.45;12.00;;;4.80;99.90;;;;;;5033774;28;20032;-75
2021/01/10 03:38:28;;;;;;;19.38;12.20;;;4.80;99.90;;;;;;5045531;28;20032;-75
2021/01/10 03:40:55;;;;;;;18.92;12.25;;;4.90;99.90;;;;;;5020743;28;20033;-73
2021/01/10 03:43:20;;;;;;;16.95;11.52;;;4.90;99.90;;;;;;5041773;28;20034;-75
2021/01/10 03:45:46;;;;;;;18.85;12.65;;;4.90;99.90;;;;;;5050138;28;20032;-75
2021/01/10 03:48:12;;;;;;;19.20;11.68;;;4.80;99.90;;;;;;5045895;28;20025;-75
2021/01/10 03:50:37;;;;;;;18.48;12.25;;;4.90;99.90;;;;;;5053670;28;20462;-75
2021/01/10 03:53:03;;;;;;;16.70;10.40;;;4.90;99.90;;;;;;5047388;28;20033;-75
2021/01/10 03:55:29;;;;;;;19.83;11.38;;;4.90;99.90;;;;;;5049031;28;20029;-76
2021/01/10 03:57:54;;;;;;;18.60;11.57;;;4.80;99.90;;;;;;5043581;28;20029;-76
2021/01/10 04:00:20;;;;;;;18.98;12.10;;;4.80;99.90;;;;;;5034934;28;20390;-75
2021/01/10 04:02:46;;;;;;;21.83;12.73;;;4.80;99.90;;;;;;5038962;28;20023;-76
2021/01/10 04:05:12;;;;;;;20.58;11.82;;;4.80;99.90;;;;;;5055183;28;20090;-76
2021/01/10 04:07:38;;;;;;;18.15;11.95;;;4.80;99.90;;;;;;5052215;28;20021;-75
2021/01/10 04:10:04;;;;;;;19.30;11.73;;;4.80;99.90;;;;;;5054891;28;20037;-76
2021/01/10 04:12:30;;;;;;;19.67;11.90;;;4.80;99.90;;;;;;5039214;28;20021;-75
2021/01/10 04:14:56;;;;;;;17.55;11.30;;;4.80;99.90;;;;;;5040124;28;20579;-77
2021/01/10 04:17:25;;;;;;;18.33;11.55;;;4.80;99.90;;;;;;5032739;28;20048;-76
2021/01/10 04:19:54;;;;;;;19.10;11.20;;;4.80;99.90;;;;;;5039566;28;20077;-76
2021/01/10 04:22:21;;;;;;;21.75;11.27;;;4.80;99.90;;;;;;5048452;28;20036;-76
2021/01/10 04:24:47;;;;;;;15.73;10.88;;;4.80;99.90;;;;;;5040738;28;20500;-76
2021/01/10 04:27:12;;;;;;;16.45;11.23;;;4.80;99.90;;;;;;5040908;28;20026;-75
2021/01/10 04:29:38;;;;;;;20.10;11.73;;;4.80;99.90;;;;;;5034255;28;20037;-76
2021/01/10 04:32:04;;;;;;;17.88;10.98;;;4.80;99.90;;;;;;5022883;28;20025;-77
2021/01/10 04:34:30;;;;;;;18.98;11.15;;;4.70;99.90;;;;;;5037340;28;20116;-76
2021/01/10 04:36:55;;;;;;;20.45;11.98;;;4.70;99.90;;;;;;5040184;28;20029;-75
2021/01/10 04:39:21;;;;;;;16.70;10.98;;;4.70;99.90;;;;;;5029267;28;20033;-76
2021/01/10 04:41:47;;;;;;;15.55;10.23;;;4.70;99.90;;;;;;5036014;28;20033;-76
2021/01/10 04:44:13;;;;;;;18.10;11.52;;;4.70;99.90;;;;;;5035684;28;20238;-75
2021/01/10 04:46:40;;;;;;;21.77;12.48;;;4.70;99.90;;;;;;5017963;28;20029;-75
2021/01/10 04:49:06;;;;;;;23.48;13.70;;;4.70;99.90;;;;;;5036158;28;20481;-76
2021/01/10 04:51:34;;;;;;;20.13;11.75;;;4.70;99.90;;;;;;5034156;28;20034;-76
2021/01/10 04:54:02;;;;;;;21.83;12.98;;;4.70;99.90;;;;;;5035424;28;20025;-75
2021/01/10 04:56:29;;;;;;;22.10;12.80;;;4.70;99.90;;;;;;5035772;28;20040;-76
2021/01/10 04:59:00;;;;;;;22.17;12.38;;;4.70;99.90;;;;;;5036465;28;20056;-76
2021/01/10 05:01:35;;;;;;;20.03;11.67;;;4.70;99.90;;;;;;5035909;28;20405;-76
2021/01/10 05:04:02;;;;;;;20.88;10.88;;;4.70;99.90;;;;;;5046618;28;20034;-75
2021/01/10 05:06:28;;;;;;;21.05;12.38;;;4.60;99.90;;;;;;5033888;28;20104;-76
2021/01/10 05:08:55;;;;;;;19.15;12.15;;;4.60;99.90;;;;;;5015425;28;20112;-74
2021/01/10 05:11:21;;;;;;;20.02;11.73;;;4.70;99.90;;;;;;5038894;28;20025;-75
2021/01/10 05:13:46;;;;;;;22.15;13.40;;;4.70;99.90;;;;;;5026043;28;20048;-76
2021/01/10 05:16:19;;;;;;;20.65;12.60;;;4.70;99.90;;;;;;5049664;28;20359;-76
2021/01/10 05:18:52;;;;;;;23.35;12.73;;;4.70;99.90;;;;;;5033784;28;20031;-76
2021/01/10 05:21:19;;;;;;;21.25;12.15;;;4.70;99.90;;;;;;5047391;28;20104;-75
2021/01/10 05:23:51;;;;;;;20.90;12.93;;;4.70;99.90;;;;;;5015668;28;20128;-77
2021/01/10 05:26:19;;;;;;;18.35;12.43;;;4.70;99.90;;;;;;5036137;28;20036;-76
2021/01/10 05:28:46;;;;;;;19.70;11.20;;;4.70;99.90;;;;;;5040722;28;20120;-76
2021/01/10 05:31:12;;;;;;;19.50;11.95;;;4.70;99.90;;;;;;5047794;28;20573;-77
2021/01/10 05:33:51;;;;;;;17.98;11.73;;;4.70;99.90;;;;;;5052590;28;20060;-76
2021/01/10 05:36:29;;;;;;;21.40;12.15;;;4.70;99.90;;;;;;5049131;28;20147;-76
2021/01/10 05:38:56;;;;;;;20.02;12.25;;;4.70;99.90;;;;;;5027722;28;20021;-74
2021/01/10 05:41:23;;;;;;;19.50;12.35;;;4.70;99.90;;;;;;5046160;28;20097;-78
2021/01/10 05:44:00;;;;;;;21.40;10.57;;;4.70;99.90;;;;;;5036077;28;20033;-77
2021/01/10 05:46:30;;;;;;;17.27;11.52;;;4.70;99.90;;;;;;5045657;28;20028;-77
2021/01/10 05:49:00;;;;;;;24.15;10.90;;;4.70;99.90;;;;;;5050634;28;20125;-76
2021/01/10 05:51:30;;;;;;;21.15;10.65;;;4.70;99.90;;;;;;5038114;28;20044;-75
2021/01/10 05:53:56;;;;;;;18.85;11.88;;;4.70;99.90;;;;;;5048721;28;20026;-76
2021/01/10 05:56:22;;;;;;;19.73;11.32;;;4.70;99.90;;;;;;5042858;28;20025;-76
2021/01/10 05:58:56;;;;;;;17.65;10.68;;;4.70;99.90;;;;;;5037491;28;20040;-75
2021/01/10 06:01:22;;;;;;;16.25;10.80;;;4.70;99.90;;;;;;5037095;28;20046;-76
2021/01/10 06:03:49;;;;;;;17.83;11.05;;;4.70;99.90;;;;;;5046636;28;20484;-76
2021/01/10 06:06:15;;;;;;;19.15;12.23;;;4.70;99.90;;;;;;5050520;28;20056;-75
2021/01/10 06:08:41;;;;;;;17.17;10.98;;;4.70;99.90;;;;;;5046779;28;20049;-76
2021/01/10 06:11:27;;;;;;;18.83;10.98;;;4.60;99.90;;;;;;5029599;28;20441;-74
2021/01/10 06:13:55;;;;;;;17.35;11.73;;;4.70;99.90;;;;;;5034806;28;20025;-75
2021/01/10 06:16:24;;;;;;;17.63;10.15;;;4.60;99.90;;;;;;5020970;28;20017;-75
2021/01/10 06:18:56;;;;;;;19.55;10.93;;;4.60;99.90;;;;;;5041608;28;20056;-75
2021/01/10 06:21:27;;;;;;;18.67;11.52;;;4.60;99.90;;;;;;5042345;28;20040;-76
2021/01/10 06:23:57;;;;;;;21.05;11.15;;;4.70;99.90;;;;;;5065834;28;20025;-75
2021/01/10 06:26:25;;;;;;;23.00;12.38;;;4.60;99.90;;;;;;5063538;28;20036;-75
2021/01/10 06:28:56;;;;;;;18.55;11.63;;;4.60;99.90;;;;;;5043715;28;20017;-76
2021/01/10 06:31:28;;;;;;;16.67;10.83;;;4.60;99.90;;;;;;5021249;28;20072;-75
2021/01/10 06:34:03;;;;;;;17.30;10.43;;;4.60;99.90;;;;;;5032371;28;20029;-76
2021/01/10 06:36:30;;;;;;;18.40;10.70;;;4.60;99.90;;;;;;5059148;28;20021;-75
2021/01/10 06:39:09;;;;;;;19.38;11.05;;;4.60;99.90;;;;;;5074011;28;20029;-75
2021/01/10 06:41:35;;;;;;;17.50;11.38;;;4.60;99.90;;;;;;5059832;28;20048;-76
2021/01/10 06:44:04;;;;;;;18.63;11.43;;;4.60;99.90;;;;;;5072977;28;20025;-76
2021/01/10 06:46:30;;;;;;;19.48;11.52;;;4.60;99.90;;;;;;5070009;28;20051;-77
2021/01/10 06:48:56;;;;;;;21.17;11.63;;;4.60;99.90;;;;;;5070846;28;20028;-76
2021/01/10 06:51:24;;;;;;;21.08;10.80;;;4.50;99.90;;;;;;5055688;28;20077;-76
2021/01/10 06:53:50;;;;;;;16.52;10.70;;;4.60;99.90;;;;;;5066815;28;20021;-76
2021/01/10 06:56:16;;;;;;;21.73;11.85;;;4.50;99.90;;;;;;5025503;28;20029;-76
2021/01/10 06:59:09;;;;;;;19.08;11.15;;;4.50;99.90;;;;;;5044762;28;20421;-75
2021/01/10 07:01:52;;;;;;;22.90;11.98;;;4.60;99.90;;;;;;5027330;28;20049;-75
2021/01/10 07:04:36;;;;;;;18.35;11.15;;;4.60;99.90;;;;;;5045233;28;20551;-77
2021/01/10 07:07:03;;;;;;;17.45;10.77;;;4.60;99.90;;;;;;5046787;28;20040;-75
2021/01/10 07:09:52;;;;;;;20.33;12.25;;;4.60;99.90;;;;;;5042651;28;20040;-75
2021/01/10 07:12:22;;;;;;;20.95;12.55;;;4.60;99.90;;;;;;5032312;28;20075;-74
2021/01/10 07:14:48;;;;;;;18.73;11.93;;;4.50;99.90;;;;;;5045596;28;20104;-75
2021/01/10 07:17:15;;;;;;;22.30;12.95;;;4.60;99.90;;;;;;5033223;28;20033;-74
2021/01/10 07:19:44;;;;;;;17.88;11.43;;;4.60;99.90;;;;;;5034012;28;20113;-76
2021/01/10 07:22:34;;;;;;;19.15;11.52;;;4.60;99.90;;;;;;5040701;28;20079;-75
2021/01/10 07:25:33;;;;;;;20.25;12.38;;;4.70;99.90;;;;;;5018493;28;20056;-76
2021/01/10 07:28:34;;;;;;;20.85;12.05;;;4.60;99.90;;;;;;5051300;28;20013;-74
2021/01/10 07:31:19;;;;;;;21.90;12.60;;;4.60;99.90;;;;;;5031160;28;20103;-75
2021/01/10 07:33:46;;;;;;;20.42;12.73;;;4.60;99.90;;;;;;5024040;28;20396;-75
2021/01/10 07:36:12;;;;;;;21.90;12.68;;;4.60;99.90;;;;;;5051543;28;20017;-75
2021/01/10 07:38:40;;;;;;;19.38;11.52;;;4.60;99.90;;;;;;5031613;28;20037;-74
2021/01/10 07:41:22;;;;;;;25.25;11.98;;;4.60;99.90;;;;;;5038638;28;20501;-74
2021/01/10 07:43:56;;;;;;;19.98;12.25;;;4.70;99.90;;;;;;5045616;28;20439;-75
2021/01/10 07:46:50;;;;;;;22.20;12.27;;;4.70;99.90;;;;;;5039916;28;20351;-75
2021/01/10 07:49:18;;;;;;;22.70;13.27;;;4.70;99.90;;;;;;5027397;28;20457;-75
2021/01/10 07:51:48;;;;;;;22.80;13.63;;;4.60;99.90;;;;;;5026833;28;20033;-77
2021/01/10 07:54:14;;;;;;;29.48;13.18;;;4.60;99.90;;;;;;5044605;28;20049;-77
2021/01/10 07:56:40;;;;;;;20.88;12.43;;;4.60;99.90;;;;;;5044522;28;20366;-77
2021/01/10 07:59:12;;;;;;;24.58;14.27;;;4.70;99.90;;;;;;5040885;28;20082;-78
2021/01/10 08:01:51;;;;;;;23.60;13.23;;;4.60;99.90;;;;;;5029969;28;20049;-75
2021/01/10 08:04:34;;;;;;;21.02;12.20;;;4.60;99.90;;;;;;5044859;28;20033;-74
2021/01/10 08:07:03;;;;;;;21.77;12.68;;;4.60;99.90;;;;;;5045522;28;20025;-77
2021/01/10 08:09:33;;;;;;;21.90;13.20;;;4.60;99.90;;;;;;5033876;28;20020;-75
2021/01/10 08:12:02;;;;;;;20.33;12.10;;;4.60;99.90;;;;;;5032663;28;20067;-75
2021/01/10 08:14:28;;;;;;;20.20;11.88;;;4.60;99.90;;;;;;5047890;28;20017;-76
2021/01/10 08:16:54;;;;;;;21.25;12.55;;;4.70;99.90;;;;;;5040685;28;20079;-75
2021/01/10 08:19:20;;;;;;;21.77;13.00;;;4.70;99.90;;;;;;5045221;28;20033;-75
2021/01/10 08:21:46;;;;;;;24.05;13.75;;;4.70;99.90;;;;;;5048337;28;20072;-75
2021/01/10 08:24:15;;;;;;;22.00;13.20;;;4.60;99.90;;;;;;5035981;28;20033;-75
2021/01/10 08:26:42;;;;;;;22.10;13.20;;;4.70;99.90;;;;;;5038500;28;20037;-75
2021/01/10 08:29:08;;;;;;;23.58;14.15;;;4.70;99.90;;;;;;5037813;28;20030;-75
2021/01/10 08:31:35;;;;;;;22.85;13.52;;;4.70;99.90;;;;;;5038709;28;20552;-74
2021/01/10 08:34:07;;;;;;;24.23;14.55;;;4.70;99.90;;;;;;5037526;28;20037;-74
2021/01/10 08:36:33;;;;;;;;;;;4.70;99.90;;;;;;5021443;28;20072;-75
2021/01/10 08:39:09;;;;;;;22.63;13.73;;;4.70;99.90;;;;;;5039119;28;19973;-76
2021/01/10 08:41:44;;;;;;;22.65;13.75;;;4.70;99.90;;;;;;5050606;28;20033;-75
2021/01/10 08:44:20;;;;;;;32.28;13.77;;;4.70;99.90;;;;;;5033610;28;20089;-74
2021/01/10 08:46:47;;;;;;;21.27;13.07;;;4.70;99.90;;;;;;5035977;28;20034;-74
2021/01/10 08:49:18;;;;;;;23.35;14.27;;;4.70;99.90;;;;;;5036633;28;20083;-75
2021/01/10 08:51:44;;;;;;;24.20;13.88;;;4.80;99.90;;;;;;5035099;28;20025;-74
2021/01/10 08:54:14;;;;;;;21.42;13.68;;;4.70;99.90;;;;;;5036023;28;20021;-76
2021/01/10 08:56:41;;;;;;;24.52;14.48;;;4.70;99.90;;;;;;5039207;28;20392;-74
2021/01/10 08:59:09;;;;;;;24.98;13.77;;;4.70;99.90;;;;;;5041357;28;20104;-76
2021/01/10 09:01:35;;;;;;;31.90;15.25;;;4.80;99.90;;;;;;5035664;28;20332;-74
2021/01/10 09:04:10;;;;;;;23.58;14.95;;;4.80;99.90;;;;;;5039566;28;20436;-74
2021/01/10 09:06:45;;;;;;;25.40;14.45;;;4.80;99.90;;;;;;5040651;28;20476;-77
2021/01/10 09:09:32;;;;;;;23.45;14.43;;;4.80;99.90;;;;;;5040772;28;20048;-75
2021/01/10 09:12:22;;;;;;;25.50;15.07;;;4.90;99.90;;;;;;5039207;28;20026;-76
2021/01/10 09:15:04;;;;;;;27.20;15.48;;;4.90;99.90;;;;;;5037714;28;20029;-76
2021/01/10 09:17:36;;;;;;;25.70;15.30;;;4.90;99.90;;;;;;5040397;28;20017;-76
2021/01/10 09:20:08;;;;;;;;;;;4.90;99.90;;;;;;5033629;28;20131;-75
2021/01/10 09:22:34;;;;;;;24.02;14.60;;;5.00;99.90;;;;;;5033545;28;19913;-74
2021/01/10 09:25:15;;;;;;;22.25;14.23;;;5.00;99.90;;;;;;5039029;28;20046;-76
2021/01/10 09:28:17;;;;;;;22.85;14.20;;;5.00;99.90;;;;;;5040520;28;20032;-76
2021/01/10 09:30:50;;;;;;;21.52;12.52;;;5.00;99.90;;;;;;5019586;28;20045;-76
2021/01/10 09:33:24;;;;;;;22.73;13.93;;;5.10;99.90;;;;;;5035622;28;20029;-75
2021/01/10 09:35:51;;;;;;;19.90;13.45;;;5.20;99.90;;;;;;5045150;28;20037;-75
2021/01/10 09:38:22;;;;;;;19.98;13.10;;;5.30;99.90;;;;;;5046907;28;20382;-76
2021/01/10 09:41:02;;;;;;;22.48;13.23;;;5.30;99.90;;;;;;5051319;28;20027;-76
2021/01/10 09:43:42;;;;;;;23.23;12.75;;;5.40;99.90;;;;;;5049151;28;20029;-75
2021/01/10 09:46:27;;;;;;;22.25;12.38;;;5.40;99.90;;;;;;5033489;28;20033;-76
2021/01/10 09:49:02;;;;;;;21.50;12.77;;;5.60;99.90;;;;;;5044203;28;20028;-75
2021/01/10 09:51:38;;;;;;;20.63;11.88;;;5.70;99.90;;;;;;5048742;28;20052;-76
2021/01/10 09:54:16;;;;;;;16.88;11.38;;;5.60;99.90;;;;;;5033476;28;20025;-75
2021/01/10 09:56:49;;;;;;;22.77;12.50;;;5.60;99.90;;;;;;5049096;28;20029;-76
2021/01/10 09:59:32;;;;;;;17.60;11.80;;;5.60;99.90;;;;;;5030580;28;20743;-76
2021/01/10 10:02:09;;;;;;;19.83;12.00;;;5.50;99.90;;;;;;5005804;28;20590;-76
2021/01/10 10:04:35;;;;;;;19.73;12.10;;;5.50;99.90;;;;;;5010337;28;20450;-76
2021/01/10 10:07:02;;;;;;;20.33;11.35;;;5.50;99.90;;;;;;4992987;28;20097;-76
2021/01/10 10:10:18;;;;;;;16.63;10.27;;;5.50;99.90;;;;;;5006726;28;20026;-76
2021/01/10 10:12:58;;;;;;;14.48;9.75;;;5.50;99.90;;;;;;4927607;28;20115;-76
2021/01/10 10:15:56;;;;;;;18.23;9.85;;;5.50;99.90;;;;;;4946619;28;20376;-75
2021/01/10 10:18:28;;;;;;;17.73;9.55;;;5.50;99.90;;;;;;4985393;28;20042;-76
2021/01/10 10:20:54;;;;;;;;;;;5.50;99.90;;;;;;5003174;28;20054;-76
2021/01/10 10:23:20;;;;;;;21.33;10.32;;;5.50;99.90;;;;;;4997710;28;20314;-76
2021/01/10 10:25:50;;;;;;;15.25;10.02;;;5.50;99.90;;;;;;5000482;28;20278;-75
2021/01/10 10:28:16;;;;;;;14.90;10.07;;;5.40;99.90;;;;;;5000419;28;20109;-76
2021/01/10 10:30:43;;;;;;;18.08;11.32;;;5.40;99.90;;;;;;4983066;28;20037;-74
2021/01/10 10:33:09;;;;;;;14.30;9.80;;;5.40;99.90;;;;;;5002402;28;20045;-76
2021/01/10 10:35:36;;;;;;;16.95;10.20;;;5.40;99.90;;;;;;5001917;28;20033;-75
2021/01/10 10:38:03;;;;;;;16.27;10.52;;;5.30;99.90;;;;;;4997300;28;20489;-76
2021/01/10 10:40:29;;;;;;;17.35;10.38;;;5.30;99.90;;;;;;5009233;28;20113;-75
2021/01/10 10:42:55;;;;;;;16.48;11.50;;;5.30;99.90;;;;;;5003408;28;20555;-78
2021/01/10 10:45:21;;;;;;;17.25;10.63;;;5.30;99.90;;;;;;5010368;28;20120;-75
2021/01/10 10:47:47;;;;;;;15.85;10.57;;;5.20;99.90;;;;;;5012664;28;20093;-77
2021/01/10 10:50:12;;;;;;;14.38;9.82;;;5.20;99.90;;;;;;5013963;28;20052;-76
2021/01/10 10:52:40;;;;;;;20.08;9.57;;;5.20;99.90;;;;;;5017603;28;20485;-75
2021/01/10 10:55:06;;;;;;;17.23;9.75;;;5.20;99.90;;;;;;5012252;28;20371;-76
2021/01/10 10:57:32;;;;;;;14.30;9.43;;;5.10;99.90;;;;;;5006609;28;20025;-76
2021/01/10 10:59:57;;;;;;;15.77;9.60;;;5.10;99.90;;;;;;5021726;28;20033;-76
2021/01/10 11:02:24;;;;;;;13.88;9.88;;;5.10;99.90;;;;;;5048643;28;20048;-76
2021/01/10 11:04:49;;;;;;;16.00;9.80;;;5.10;99.90;;;;;;5048101;28;20112;-75
2021/01/10 11:07:16;;;;;;;15.02;9.68;;;5.10;99.90;;;;;;5036647;28;20436;-78
2021/01/10 11:09:43;;;;;;;16.40;10.23;;;5.10;99.90;;;;;;5045268;28;20033;-79
2021/01/10 11:12:14;;;;;;;14.98;9.63;;;5.10;99.90;;;;;;5041578;28;20112;-78
2021/01/10 11:14:40;;;;;;;15.32;9.13;;;5.20;99.90;;;;;;5051063;28;20027;-77
2021/01/10 11:17:07;;;;;;;13.70;9.43;;;5.20;99.90;;;;;;5051114;28;20040;-75
2021/01/10 11:19:33;;;;;;;18.58;10.45;;;5.20;99.90;;;;;;5049349;28;20079;-77
2021/01/10 11:22:03;;;;;;;15.43;9.63;;;5.30;99.90;;;;;;5040137;28;20010;-78
2021/01/10 11:24:29;;;;;;;16.35;9.93;;;5.20;99.90;;;;;;5019643;28;20045;-75
2021/01/10 11:26:55;;;;;;;15.23;10.30;;;5.20;99.90;;;;;;5039258;28;20032;-76
2021/01/10 11:29:21;;;;;;;15.25;10.05;;;5.10;99.90;;;;;;5043522;28;20024;-74
2021/01/10 11:31:47;;;;;;;24.77;13.02;;;5.10;99.90;;;;;;5044706;28;20119;-76
2021/01/10 11:34:13;;;;;;;13.82;10.40;;;5.10;99.90;;;;;;5040961;28;20017;-76
2021/01/10 11:36:44;;;;;;;16.50;10.85;;;5.10;99.90;;;;;;5049617;28;20079;-75
2021/01/10 11:39:10;;;;;;;15.77;10.93;;;5.00;99.90;;;;;;5047132;28;20021;-76
2021/01/10 11:41:47;;;;;;;22.33;13.20;;;4.90;99.90;;;;;;5044282;28;20037;-76
2021/01/10 11:44:14;;;;;;;21.42;12.75;;;4.90;99.90;;;;;;5047694;28;20516;-76
2021/01/10 11:46:41;;;;;;;13.98;9.45;;;4.80;99.90;;;;;;5042097;28;20034;-76
2021/01/10 11:49:08;;;;;;;12.82;9.25;;;4.80;99.90;;;;;;5044761;28;20044;-76
2021/01/10 11:51:34;;;;;;;16.42;10.90;;;4.80;99.90;;;;;;5045567;28;20116;-75
2021/01/10 11:54:00;;;;;;;16.38;10.23;;;4.70;99.90;;;;;;5048892;28;20477;-75
2021/01/10 11:56:26;;;;;;;17.88;11.65;;;4.70;99.90;;;;;;5041083;28;20021;-75
2021/01/10 11:58:51;;;;;;;19.50;12.35;;;4.60;99.90;;;;;;5045785;28;20037;-75
2021/01/10 12:01:17;;;;;;;16.40;10.80;;;4.60;99.90;;;;;;5042806;28;20111;-77
2021/01/10 12:03:43;;;;;;;16.77;10.35;;;4.70;99.90;;;;;;5049383;28;20037;-76
2021/01/10 12:06:09;;;;;;;19.23;9.70;;;4.60;99.90;;;;;;5050345;28;20032;-74
2021/01/10 12:08:35;;;;;;;15.73;10.80;;;4.50;99.90;;;;;;5036193;28;20051;-76
2021/01/10 12:11:01;;;;;;;14.10;9.00;;;4.50;99.90;;;;;;5048311;28;20493;-74
2021/01/10 12:13:27;;;;;;;16.98;9.38;;;4.50;99.90;;;;;;5053780;28;20087;-75
2021/01/10 12:15:53;;;;;;;16.13;9.30;;;4.50;99.90;;;;;;5052274;28;20025;-76
2021/01/10 12:18:18;;;;;;;15.15;10.25;;;4.50;99.90;;;;;;5051725;28;20072;-75
2021/01/10 12:20:44;;;;;;;14.02;9.40;;;4.50;99.90;;;;;;5034144;28;20037;-74
2021/01/10 12:23:10;;;;;;;15.15;9.45;;;4.50;99.90;;;;;;5049245;28;20031;-76
2021/01/10 12:25:36;;;;;;;21.30;10.95;;;4.50;99.90;;;;;;5051201;28;20430;-75
2021/01/10 12:28:02;;;;;;;14.50;11.02;;;4.50;99.90;;;;;;5051568;28;20068;-76
2021/01/10 12:30:28;;;;;;;13.98;9.25;;;4.50;99.90;;;;;;5046838;28;20088;-74
2021/01/10 12:32:54;;;;;;;15.07;10.50;;;4.60;99.90;;;;;;5047497;28;20079;-74
2021/01/10 12:35:20;;;;;;;16.05;9.57;;;4.70;99.90;;;;;;5036507;28;20034;-75
2021/01/10 12:37:48;;;;;;;16.30;9.02;;;4.70;99.90;;;;;;5053191;28;20021;-74
2021/01/10 12:40:16;;;;;;;12.20;8.70;;;4.70;99.90;;;;;;5052021;28;20095;-74
2021/01/10 12:42:42;;;;;;;11.90;7.80;;;4.60;99.90;;;;;;5046655;28;20389;-76
2021/01/10 12:45:10;;;;;;;15.27;9.25;;;4.60;99.90;;;;;;5042076;28;20309;-75
2021/01/10 12:47:38;;;;;;;12.20;9.50;;;4.60;99.90;;;;;;5051462;28;20082;-76
2021/01/10 12:50:04;;;;;;;12.18;8.82;;;4.60;99.90;;;;;;5048266;28;20079;-73
2021/01/10 12:52:30;;;;;;;13.43;10.75;;;4.70;99.90;;;;;;5051365;28;20017;-75